sensor_id;sensor_type;location;lat;lon;timestamp;P1;durP1;ratioP1;P2;durP2;ratioP2
44272;SDS011;29964;17.182;-96.766;2023-07-09T00:02:12;7.30;;;2.22;;
44272;SDS011;29964;17.182;-96.766;2023-07-09T00:04:38;7.00;;;3.05;;
44272;SDS011;29964;17.182;-96.766;2023-07-09T00:07:05;3.47;;;2.13;;
44272;SDS011;29964;17.182;-96.766;2023-07-09T00:09:36;3.27;;;2.20;;
44272;SDS011;29964;17.182;-96.766;2023-07-09T00:12:02;2.53;;;1.83;;
44272;SDS011;29964;17.182;-96.766;2023-07-09T00:14:29;2.43;;;1.50;;
44272;SDS011;29964;17.182;-96.766;2023-07-09T00:16:56;4.17;;;2.07;;
44272;SDS011;29964;17.182;-96.766;2023-07-09T00:19:23;2.03;;;1.43;;
44272;SDS011;29964;17.182;-96.766;2023-07-09T00:21:49;2.20;;;1.67;;
44272;SDS011;29964;17.182;-96.766;2023-07-09T00:24:18;2.50;;;1.67;;
44272;SDS011;29964;17.182;-96.766;2023-07-09T00:26:45;2.73;;;1.93;;
44272;SDS011;29964;17.182;-96.766;2023-07-09T00:29:13;3.17;;;1.90;;
44272;SDS011;29964;17.182;-96.766;2023-07-09T00:31:40;3.37;;;2.17;;
44272;SDS011;29964;17.182;-96.766;2023-07-09T00:34:10;2.93;;;2.17;;
44272;SDS011;29964;17.182;-96.766;2023-07-09T00:36:38;2.83;;;1.90;;
44272;SDS011;29964;17.182;-96.766;2023-07-09T00:39:05;3.93;;;2.67;;
44272;SDS011;29964;17.182;-96.766;2023-07-09T00:41:36;1.93;;;1.23;;
44272;SDS011;29964;17.182;-96.766;2023-07-09T00:52:17;3.20;;;2.10;;
44272;SDS011;29964;17.182;-96.766;2023-07-09T00:54:47;4.63;;;2.43;;
44272;SDS011;29964;17.182;-96.766;2023-07-09T00:57:15;3.00;;;2.10;;
44272;SDS011;29964;17.182;-96.766;2023-07-09T00:59:44;2.80;;;1.87;;
44272;SDS011;29964;17.182;-96.766;2023-07-09T01:02:12;3.77;;;2.10;;
44272;SDS011;29964;17.182;-96.766;2023-07-09T01:04:39;6.07;;;2.37;;
44272;SDS011;29964;17.182;-96.766;2023-07-09T01:07:06;3.63;;;2.33;;
44272;SDS011;29964;17.182;-96.766;2023-07-09T01:09:33;4.57;;;2.50;;
44272;SDS011;29964;17.182;-96.766;2023-07-09T01:12:06;3.20;;;2.23;;
44272;SDS011;29964;17.182;-96.766;2023-07-09T01:14:34;2.87;;;1.87;;
44272;SDS011;29964;17.182;-96.766;2023-07-09T01:17:02;3.80;;;2.43;;
44272;SDS011;29964;17.182;-96.766;2023-07-09T01:19:35;3.27;;;2.20;;
44272;SDS011;29964;17.182;-96.766;2023-07-09T01:22:09;4.50;;;2.70;;
44272;SDS011;29964;17.182;-96.766;2023-07-09T01:27:31;8.83;;;3.47;;
44272;SDS011;29964;17.182;-96.766;2023-07-09T01:29:59;4.73;;;3.10;;
44272;SDS011;29964;17.182;-96.766;2023-07-09T01:32:26;6.00;;;4.37;;
44272;SDS011;29964;17.182;-96.766;2023-07-09T01:34:56;5.27;;;3.30;;
44272;SDS011;29964;17.182;-96.766;2023-07-09T01:37:24;6.23;;;4.17;;
44272;SDS011;29964;17.182;-96.766;2023-07-09T01:39:52;5.17;;;2.77;;
44272;SDS011;29964;17.182;-96.766;2023-07-09T01:42:20;9.93;;;5.83;;
44272;SDS011;29964;17.182;-96.766;2023-07-09T01:44:48;8.60;;;5.87;;
44272;SDS011;29964;17.182;-96.766;2023-07-09T01:47:16;3.53;;;2.73;;
44272;SDS011;29964;17.182;-96.766;2023-07-09T01:49:43;4.23;;;2.50;;
44272;SDS011;29964;17.182;-96.766;2023-07-09T01:52:12;4.23;;;2.23;;
44272;SDS011;29964;17.182;-96.766;2023-07-09T01:54:41;8.57;;;2.63;;
44272;SDS011;29964;17.182;-96.766;2023-07-09T01:59:52;6.97;;;2.83;;
44272;SDS011;29964;17.182;-96.766;2023-07-09T02:02:20;4.87;;;2.97;;
44272;SDS011;29964;17.182;-96.766;2023-07-09T02:04:56;5.03;;;2.77;;
44272;SDS011;29964;17.182;-96.766;2023-07-09T02:07:23;4.10;;;2.83;;
44272;SDS011;29964;17.182;-96.766;2023-07-09T02:09:50;3.90;;;2.47;;
44272;SDS011;29964;17.182;-96.766;2023-07-09T02:12:17;4.07;;;2.73;;
44272;SDS011;29964;17.182;-96.766;2023-07-09T02:14:44;5.80;;;3.13;;
44272;SDS011;29964;17.182;-96.766;2023-07-09T02:17:12;4.33;;;2.63;;
44272;SDS011;29964;17.182;-96.766;2023-07-09T02:19:39;6.60;;;3.83;;
44272;SDS011;29964;17.182;-96.766;2023-07-09T02:22:07;5.10;;;3.23;;
44272;SDS011;29964;17.182;-96.766;2023-07-09T02:24:34;5.87;;;3.83;;
44272;SDS011;29964;17.182;-96.766;2023-07-09T02:27:02;34.03;;;4.53;;
44272;SDS011;29964;17.182;-96.766;2023-07-09T02:29:29;5.67;;;3.93;;
44272;SDS011;29964;17.182;-96.766;2023-07-09T02:31:57;6.10;;;4.43;;
44272;SDS011;29964;17.182;-96.766;2023-07-09T02:34:25;8.47;;;4.27;;
44272;SDS011;29964;17.182;-96.766;2023-07-09T02:36:56;5.40;;;3.87;;
44272;SDS011;29964;17.182;-96.766;2023-07-09T02:39:23;31.57;;;4.57;;
44272;SDS011;29964;17.182;-96.766;2023-07-09T02:41:50;6.50;;;3.60;;
44272;SDS011;29964;17.182;-96.766;2023-07-09T02:44:17;6.47;;;3.57;;
44272;SDS011;29964;17.182;-96.766;2023-07-09T02:46:44;17.60;;;5.97;;
44272;SDS011;29964;17.182;-96.766;2023-07-09T02:49:12;11.80;;;4.17;;
44272;SDS011;29964;17.182;-96.766;2023-07-09T02:51:39;4.43;;;3.10;;
44272;SDS011;29964;17.182;-96.766;2023-07-09T02:54:06;4.90;;;2.77;;
44272;SDS011;29964;17.182;-96.766;2023-07-09T02:56:33;6.63;;;4.20;;
44272;SDS011;29964;17.182;-96.766;2023-07-09T02:59:00;3.53;;;2.57;;
44272;SDS011;29964;17.182;-96.766;2023-07-09T03:01:27;8.20;;;3.43;;
44272;SDS011;29964;17.182;-96.766;2023-07-09T03:03:54;10.30;;;3.73;;
44272;SDS011;29964;17.182;-96.766;2023-07-09T03:06:22;5.50;;;3.20;;
44272;SDS011;29964;17.182;-96.766;2023-07-09T03:08:50;4.40;;;2.87;;
44272;SDS011;29964;17.182;-96.766;2023-07-09T03:11:17;5.70;;;3.20;;
44272;SDS011;29964;17.182;-96.766;2023-07-09T03:13:44;5.70;;;3.50;;
44272;SDS011;29964;17.182;-96.766;2023-07-09T03:16:16;5.60;;;2.70;;
44272;SDS011;29964;17.182;-96.766;2023-07-09T03:18:45;4.37;;;2.70;;
44272;SDS011;29964;17.182;-96.766;2023-07-09T03:21:12;4.27;;;3.00;;
44272;SDS011;29964;17.182;-96.766;2023-07-09T03:23:38;3.83;;;2.80;;
44272;SDS011;29964;17.182;-96.766;2023-07-09T03:26:05;7.17;;;3.40;;
44272;SDS011;29964;17.182;-96.766;2023-07-09T03:28:32;5.87;;;3.87;;
44272;SDS011;29964;17.182;-96.766;2023-07-09T03:30:59;5.43;;;3.63;;
44272;SDS011;29964;17.182;-96.766;2023-07-09T03:33:26;4.53;;;2.87;;
44272;SDS011;29964;17.182;-96.766;2023-07-09T03:35:53;5.07;;;3.03;;
44272;SDS011;29964;17.182;-96.766;2023-07-09T03:38:20;5.10;;;3.10;;
44272;SDS011;29964;17.182;-96.766;2023-07-09T03:40:49;4.43;;;3.23;;
44272;SDS011;29964;17.182;-96.766;2023-07-09T03:43:17;12.53;;;4.23;;
44272;SDS011;29964;17.182;-96.766;2023-07-09T03:45:44;5.30;;;3.17;;
44272;SDS011;29964;17.182;-96.766;2023-07-09T03:48:11;2.80;;;2.20;;
44272;SDS011;29964;17.182;-96.766;2023-07-09T03:50:39;6.00;;;3.83;;
44272;SDS011;29964;17.182;-96.766;2023-07-09T03:53:05;3.67;;;2.57;;
44272;SDS011;29964;17.182;-96.766;2023-07-09T03:55:32;4.17;;;2.87;;
44272;SDS011;29964;17.182;-96.766;2023-07-09T03:57:59;9.73;;;3.73;;
44272;SDS011;29964;17.182;-96.766;2023-07-09T04:00:28;4.20;;;3.03;;
44272;SDS011;29964;17.182;-96.766;2023-07-09T04:02:55;15.90;;;3.23;;
44272;SDS011;29964;17.182;-96.766;2023-07-09T04:05:22;8.00;;;3.07;;
44272;SDS011;29964;17.182;-96.766;2023-07-09T04:07:49;3.93;;;3.03;;
44272;SDS011;29964;17.182;-96.766;2023-07-09T04:10:16;8.93;;;3.43;;
44272;SDS011;29964;17.182;-96.766;2023-07-09T04:12:43;4.57;;;3.20;;
44272;SDS011;29964;17.182;-96.766;2023-07-09T04:15:10;4.87;;;3.27;;
44272;SDS011;29964;17.182;-96.766;2023-07-09T04:17:40;7.00;;;3.40;;
44272;SDS011;29964;17.182;-96.766;2023-07-09T04:20:08;7.10;;;3.23;;
44272;SDS011;29964;17.182;-96.766;2023-07-09T04:22:35;4.13;;;2.93;;
44272;SDS011;29964;17.182;-96.766;2023-07-09T04:25:02;3.67;;;2.90;;
44272;SDS011;29964;17.182;-96.766;2023-07-09T04:27:29;4.50;;;3.60;;
44272;SDS011;29964;17.182;-96.766;2023-07-09T04:29:56;3.77;;;2.23;;
44272;SDS011;29964;17.182;-96.766;2023-07-09T04:32:23;5.10;;;2.90;;
44272;SDS011;29964;17.182;-96.766;2023-07-09T04:34:50;4.00;;;2.67;;
44272;SDS011;29964;17.182;-96.766;2023-07-09T04:37:17;4.17;;;3.20;;
44272;SDS011;29964;17.182;-96.766;2023-07-09T04:39:44;16.80;;;3.23;;
44272;SDS011;29964;17.182;-96.766;2023-07-09T04:42:14;5.07;;;2.50;;
44272;SDS011;29964;17.182;-96.766;2023-07-09T04:44:41;7.17;;;3.90;;
44272;SDS011;29964;17.182;-96.766;2023-07-09T04:47:08;4.93;;;2.63;;
44272;SDS011;29964;17.182;-96.766;2023-07-09T04:49:37;3.73;;;2.43;;
44272;SDS011;29964;17.182;-96.766;2023-07-09T04:52:04;3.47;;;2.73;;
44272;SDS011;29964;17.182;-96.766;2023-07-09T04:54:31;4.60;;;2.73;;
44272;SDS011;29964;17.182;-96.766;2023-07-09T04:56:58;3.57;;;2.90;;
44272;SDS011;29964;17.182;-96.766;2023-07-09T04:59:25;6.27;;;3.90;;
44272;SDS011;29964;17.182;-96.766;2023-07-09T05:01:52;5.77;;;3.33;;
44272;SDS011;29964;17.182;-96.766;2023-07-09T05:04:19;9.80;;;3.23;;
44272;SDS011;29964;17.182;-96.766;2023-07-09T05:06:46;6.07;;;4.40;;
44272;SDS011;29964;17.182;-96.766;2023-07-09T05:09:12;7.63;;;3.33;;
44272;SDS011;29964;17.182;-96.766;2023-07-09T05:11:39;3.70;;;2.90;;
44272;SDS011;29964;17.182;-96.766;2023-07-09T05:14:06;4.63;;;3.07;;
44272;SDS011;29964;17.182;-96.766;2023-07-09T05:16:33;10.33;;;4.27;;
44272;SDS011;29964;17.182;-96.766;2023-07-09T05:19:00;9.00;;;3.60;;
44272;SDS011;29964;17.182;-96.766;2023-07-09T05:21:26;6.37;;;3.47;;
44272;SDS011;29964;17.182;-96.766;2023-07-09T05:23:53;3.60;;;2.93;;
44272;SDS011;29964;17.182;-96.766;2023-07-09T05:26:20;3.10;;;2.13;;
44272;SDS011;29964;17.182;-96.766;2023-07-09T05:28:47;5.77;;;3.07;;
44272;SDS011;29964;17.182;-96.766;2023-07-09T05:31:13;3.17;;;2.40;;
44272;SDS011;29964;17.182;-96.766;2023-07-09T05:33:40;3.83;;;2.87;;
44272;SDS011;29964;17.182;-96.766;2023-07-09T05:36:08;8.50;;;3.37;;
44272;SDS011;29964;17.182;-96.766;2023-07-09T05:38:44;6.27;;;3.57;;
44272;SDS011;29964;17.182;-96.766;2023-07-09T05:41:14;4.50;;;2.30;;
44272;SDS011;29964;17.182;-96.766;2023-07-09T05:43:42;3.10;;;2.40;;
44272;SDS011;29964;17.182;-96.766;2023-07-09T05:46:12;9.23;;;2.97;;
44272;SDS011;29964;17.182;-96.766;2023-07-09T05:48:39;8.70;;;3.20;;
44272;SDS011;29964;17.182;-96.766;2023-07-09T05:51:06;3.23;;;2.53;;
44272;SDS011;29964;17.182;-96.766;2023-07-09T05:53:33;4.57;;;2.73;;
44272;SDS011;29964;17.182;-96.766;2023-07-09T05:56:00;4.00;;;2.80;;
44272;SDS011;29964;17.182;-96.766;2023-07-09T05:58:27;3.03;;;2.57;;
44272;SDS011;29964;17.182;-96.766;2023-07-09T06:00:54;4.00;;;2.50;;
44272;SDS011;29964;17.182;-96.766;2023-07-09T06:03:24;3.23;;;2.50;;
44272;SDS011;29964;17.182;-96.766;2023-07-09T06:05:51;3.40;;;2.37;;
44272;SDS011;29964;17.182;-96.766;2023-07-09T06:08:19;4.07;;;3.20;;
44272;SDS011;29964;17.182;-96.766;2023-07-09T06:10:52;4.37;;;3.13;;
44272;SDS011;29964;17.182;-96.766;2023-07-09T06:13:19;3.13;;;2.37;;
44272;SDS011;29964;17.182;-96.766;2023-07-09T06:15:50;4.70;;;3.17;;
44272;SDS011;29964;17.182;-96.766;2023-07-09T06:18:18;3.40;;;2.47;;
44272;SDS011;29964;17.182;-96.766;2023-07-09T06:20:48;4.43;;;3.07;;
44272;SDS011;29964;17.182;-96.766;2023-07-09T06:23:15;3.57;;;2.30;;
44272;SDS011;29964;17.182;-96.766;2023-07-09T06:25:43;4.83;;;2.73;;
44272;SDS011;29964;17.182;-96.766;2023-07-09T06:28:15;3.33;;;2.37;;
44272;SDS011;29964;17.182;-96.766;2023-07-09T06:30:42;6.33;;;3.20;;
44272;SDS011;29964;17.182;-96.766;2023-07-09T06:33:09;5.10;;;3.07;;
44272;SDS011;29964;17.182;-96.766;2023-07-09T06:35:36;4.23;;;2.53;;
44272;SDS011;29964;17.182;-96.766;2023-07-09T06:38:03;5.80;;;3.57;;
44272;SDS011;29964;17.182;-96.766;2023-07-09T06:40:29;3.93;;;3.10;;
44272;SDS011;29964;17.182;-96.766;2023-07-09T06:42:56;4.93;;;3.17;;
44272;SDS011;29964;17.182;-96.766;2023-07-09T06:45:23;5.60;;;3.23;;
44272;SDS011;29964;17.182;-96.766;2023-07-09T06:47:50;4.93;;;3.40;;
44272;SDS011;29964;17.182;-96.766;2023-07-09T06:50:17;2.93;;;2.33;;
44272;SDS011;29964;17.182;-96.766;2023-07-09T06:52:44;5.13;;;3.30;;
44272;SDS011;29964;17.182;-96.766;2023-07-09T06:55:10;3.77;;;2.40;;
44272;SDS011;29964;17.182;-96.766;2023-07-09T06:57:37;2.13;;;1.80;;
44272;SDS011;29964;17.182;-96.766;2023-07-09T07:00:04;2.90;;;2.33;;
44272;SDS011;29964;17.182;-96.766;2023-07-09T07:02:32;3.93;;;2.43;;
44272;SDS011;29964;17.182;-96.766;2023-07-09T07:04:59;2.77;;;1.73;;
44272;SDS011;29964;17.182;-96.766;2023-07-09T07:07:26;2.17;;;1.40;;
44272;SDS011;29964;17.182;-96.766;2023-07-09T07:09:52;2.17;;;1.73;;
44272;SDS011;29964;17.182;-96.766;2023-07-09T07:12:26;1.90;;;1.53;;
44272;SDS011;29964;17.182;-96.766;2023-07-09T07:14:53;2.50;;;1.63;;
44272;SDS011;29964;17.182;-96.766;2023-07-09T07:17:20;2.10;;;1.17;;
44272;SDS011;29964;17.182;-96.766;2023-07-09T07:19:47;1.90;;;1.50;;
44272;SDS011;29964;17.182;-96.766;2023-07-09T07:22:14;2.40;;;1.73;;
44272;SDS011;29964;17.182;-96.766;2023-07-09T07:24:41;1.37;;;1.27;;
44272;SDS011;29964;17.182;-96.766;2023-07-09T07:27:08;3.93;;;2.37;;
44272;SDS011;29964;17.182;-96.766;2023-07-09T07:29:34;7.50;;;1.60;;
44272;SDS011;29964;17.182;-96.766;2023-07-09T07:32:01;1.50;;;1.07;;
44272;SDS011;29964;17.182;-96.766;2023-07-09T07:34:28;2.73;;;1.53;;
44272;SDS011;29964;17.182;-96.766;2023-07-09T07:36:55;1.80;;;1.20;;
44272;SDS011;29964;17.182;-96.766;2023-07-09T07:39:22;1.77;;;1.27;;
44272;SDS011;29964;17.182;-96.766;2023-07-09T07:41:49;1.80;;;1.37;;
44272;SDS011;29964;17.182;-96.766;2023-07-09T07:44:17;2.20;;;1.00;;
44272;SDS011;29964;17.182;-96.766;2023-07-09T07:46:43;1.77;;;1.10;;
44272;SDS011;29964;17.182;-96.766;2023-07-09T07:49:10;2.13;;;1.27;;
44272;SDS011;29964;17.182;-96.766;2023-07-09T07:51:37;1.33;;;1.00;;
44272;SDS011;29964;17.182;-96.766;2023-07-09T07:54:04;1.77;;;1.07;;
44272;SDS011;29964;17.182;-96.766;2023-07-09T07:56:31;1.23;;;0.93;;
44272;SDS011;29964;17.182;-96.766;2023-07-09T07:58:58;3.57;;;1.47;;
44272;SDS011;29964;17.182;-96.766;2023-07-09T08:01:25;1.70;;;1.20;;
44272;SDS011;29964;17.182;-96.766;2023-07-09T08:03:52;1.83;;;1.30;;
44272;SDS011;29964;17.182;-96.766;2023-07-09T08:06:18;1.83;;;1.17;;
44272;SDS011;29964;17.182;-96.766;2023-07-09T08:08:45;1.87;;;0.87;;
44272;SDS011;29964;17.182;-96.766;2023-07-09T08:11:14;2.43;;;0.93;;
44272;SDS011;29964;17.182;-96.766;2023-07-09T08:13:41;0.80;;;0.80;;
44272;SDS011;29964;17.182;-96.766;2023-07-09T08:16:08;1.13;;;1.00;;
44272;SDS011;29964;17.182;-96.766;2023-07-09T08:18:37;1.23;;;0.90;;
44272;SDS011;29964;17.182;-96.766;2023-07-09T08:21:04;2.77;;;1.37;;
44272;SDS011;29964;17.182;-96.766;2023-07-09T08:23:31;1.13;;;0.80;;
44272;SDS011;29964;17.182;-96.766;2023-07-09T08:25:59;1.50;;;1.07;;
44272;SDS011;29964;17.182;-96.766;2023-07-09T08:28:27;2.37;;;1.47;;
44272;SDS011;29964;17.182;-96.766;2023-07-09T08:30:54;0.63;;;0.57;;
44272;SDS011;29964;17.182;-96.766;2023-07-09T08:33:22;0.70;;;0.67;;
44272;SDS011;29964;17.182;-96.766;2023-07-09T08:35:49;1.67;;;1.20;;
44272;SDS011;29964;17.182;-96.766;2023-07-09T08:38:16;2.23;;;1.10;;
44272;SDS011;29964;17.182;-96.766;2023-07-09T08:43:46;2.40;;;1.13;;
44272;SDS011;29964;17.182;-96.766;2023-07-09T08:48:58;1.47;;;1.00;;
44272;SDS011;29964;17.182;-96.766;2023-07-09T08:51:28;2.20;;;1.17;;
44272;SDS011;29964;17.182;-96.766;2023-07-09T08:53:58;1.67;;;1.27;;
44272;SDS011;29964;17.182;-96.766;2023-07-09T08:56:25;0.70;;;0.70;;
44272;SDS011;29964;17.182;-96.766;2023-07-09T08:58:53;1.30;;;1.10;;
44272;SDS011;29964;17.182;-96.766;2023-07-09T09:01:28;2.20;;;1.43;;
44272;SDS011;29964;17.182;-96.766;2023-07-09T09:04:00;1.92;;;1.13;;
44272;SDS011;29964;17.182;-96.766;2023-07-09T09:06:30;1.20;;;0.77;;
44272;SDS011;29964;17.182;-96.766;2023-07-09T09:09:32;0.80;;;0.70;;
44272;SDS011;29964;17.182;-96.766;2023-07-09T09:11:59;1.50;;;1.10;;
44272;SDS011;29964;17.182;-96.766;2023-07-09T09:16:56;1.60;;;1.13;;
44272;SDS011;29964;17.182;-96.766;2023-07-09T09:19:27;1.13;;;0.97;;
44272;SDS011;29964;17.182;-96.766;2023-07-09T09:22:00;1.00;;;0.90;;
44272;SDS011;29964;17.182;-96.766;2023-07-09T09:27:01;1.73;;;1.17;;
44272;SDS011;29964;17.182;-96.766;2023-07-09T09:29:28;1.23;;;0.80;;
44272;SDS011;29964;17.182;-96.766;2023-07-09T09:31:55;13.40;;;1.53;;
44272;SDS011;29964;17.182;-96.766;2023-07-09T09:34:27;2.67;;;0.90;;
44272;SDS011;29964;17.182;-96.766;2023-07-09T09:36:54;1.63;;;1.13;;
44272;SDS011;29964;17.182;-96.766;2023-07-09T09:39:23;2.70;;;1.20;;
44272;SDS011;29964;17.182;-96.766;2023-07-09T09:41:52;1.50;;;1.27;;
44272;SDS011;29964;17.182;-96.766;2023-07-09T09:44:23;1.80;;;1.37;;
44272;SDS011;29964;17.182;-96.766;2023-07-09T09:46:50;2.27;;;1.50;;
44272;SDS011;29964;17.182;-96.766;2023-07-09T09:49:17;1.97;;;1.33;;
44272;SDS011;29964;17.182;-96.766;2023-07-09T09:51:45;2.03;;;1.60;;
44272;SDS011;29964;17.182;-96.766;2023-07-09T09:54:16;1.20;;;0.93;;
44272;SDS011;29964;17.182;-96.766;2023-07-09T09:56:44;3.00;;;1.50;;
44272;SDS011;29964;17.182;-96.766;2023-07-09T09:59:30;5.57;;;1.60;;
44272;SDS011;29964;17.182;-96.766;2023-07-09T10:01:58;2.17;;;1.70;;
44272;SDS011;29964;17.182;-96.766;2023-07-09T10:04:26;3.27;;;1.30;;
44272;SDS011;29964;17.182;-96.766;2023-07-09T10:06:56;2.97;;;1.93;;
44272;SDS011;29964;17.182;-96.766;2023-07-09T10:09:33;2.07;;;1.40;;
44272;SDS011;29964;17.182;-96.766;2023-07-09T10:14:56;2.40;;;1.60;;
44272;SDS011;29964;17.182;-96.766;2023-07-09T10:20:01;2.40;;;1.63;;
44272;SDS011;29964;17.182;-96.766;2023-07-09T10:30:57;3.65;;;1.55;;
44272;SDS011;29964;17.182;-96.766;2023-07-09T10:36:02;3.30;;;1.97;;
44272;SDS011;29964;17.182;-96.766;2023-07-09T10:41:03;2.83;;;2.07;;
44272;SDS011;29964;17.182;-96.766;2023-07-09T10:43:36;4.40;;;2.50;;
44272;SDS011;29964;17.182;-96.766;2023-07-09T10:46:10;3.27;;;2.00;;
44272;SDS011;29964;17.182;-96.766;2023-07-09T10:48:40;2.88;;;2.08;;
44272;SDS011;29964;17.182;-96.766;2023-07-09T10:51:12;2.57;;;2.03;;
44272;SDS011;29964;17.182;-96.766;2023-07-09T10:53:45;3.25;;;2.28;;
44272;SDS011;29964;17.182;-96.766;2023-07-09T10:56:20;1.93;;;1.30;;
44272;SDS011;29964;17.182;-96.766;2023-07-09T11:01:29;2.07;;;1.67;;
44272;SDS011;29964;17.182;-96.766;2023-07-09T11:04:09;4.07;;;2.53;;
44272;SDS011;29964;17.182;-96.766;2023-07-09T11:06:37;2.63;;;2.00;;
44272;SDS011;29964;17.182;-96.766;2023-07-09T11:09:07;7.57;;;3.00;;
44272;SDS011;29964;17.182;-96.766;2023-07-09T11:11:39;2.43;;;2.07;;
44272;SDS011;29964;17.182;-96.766;2023-07-09T11:14:49;2.17;;;1.67;;
44272;SDS011;29964;17.182;-96.766;2023-07-09T11:16:56;3.63;;;2.30;;
44272;SDS011;29964;17.182;-96.766;2023-07-09T11:19:26;4.03;;;2.80;;
44272;SDS011;29964;17.182;-96.766;2023-07-09T11:27:30;3.53;;;2.40;;
44272;SDS011;29964;17.182;-96.766;2023-07-09T11:30:02;4.17;;;2.33;;
44272;SDS011;29964;17.182;-96.766;2023-07-09T11:32:30;3.53;;;2.67;;
44272;SDS011;29964;17.182;-96.766;2023-07-09T11:35:07;2.70;;;2.30;;
44272;SDS011;29964;17.182;-96.766;2023-07-09T11:37:43;6.37;;;2.70;;
44272;SDS011;29964;17.182;-96.766;2023-07-09T11:40:11;2.03;;;1.67;;
44272;SDS011;29964;17.182;-96.766;2023-07-09T11:42:52;3.37;;;2.20;;
44272;SDS011;29964;17.182;-96.766;2023-07-09T11:45:30;2.20;;;1.73;;
44272;SDS011;29964;17.182;-96.766;2023-07-09T11:50:31;5.00;;;2.30;;
44272;SDS011;29964;17.182;-96.766;2023-07-09T11:53:01;6.47;;;2.40;;
44272;SDS011;29964;17.182;-96.766;2023-07-09T11:55:39;3.53;;;2.37;;
44272;SDS011;29964;17.182;-96.766;2023-07-09T12:00:45;1.83;;;1.40;;
44272;SDS011;29964;17.182;-96.766;2023-07-09T12:03:35;16.57;;;2.33;;
44272;SDS011;29964;17.182;-96.766;2023-07-09T12:06:02;3.67;;;2.07;;
44272;SDS011;29964;17.182;-96.766;2023-07-09T12:08:33;3.37;;;1.97;;
44272;SDS011;29964;17.182;-96.766;2023-07-09T12:11:00;2.07;;;1.57;;
44272;SDS011;29964;17.182;-96.766;2023-07-09T12:13:27;2.57;;;1.87;;
44272;SDS011;29964;17.182;-96.766;2023-07-09T12:15:54;1.67;;;1.40;;
44272;SDS011;29964;17.182;-96.766;2023-07-09T12:18:21;23.73;;;1.53;;
44272;SDS011;29964;17.182;-96.766;2023-07-09T12:20:49;3.80;;;1.93;;
44272;SDS011;29964;17.182;-96.766;2023-07-09T12:23:25;7.47;;;2.03;;
44272;SDS011;29964;17.182;-96.766;2023-07-09T12:25:53;4.83;;;2.20;;
44272;SDS011;29964;17.182;-96.766;2023-07-09T12:28:20;2.83;;;1.87;;
44272;SDS011;29964;17.182;-96.766;2023-07-09T12:30:48;1.47;;;1.23;;
44272;SDS011;29964;17.182;-96.766;2023-07-09T12:33:16;2.07;;;1.63;;
44272;SDS011;29964;17.182;-96.766;2023-07-09T12:35:44;2.60;;;1.83;;
44272;SDS011;29964;17.182;-96.766;2023-07-09T12:38:18;6.97;;;2.23;;
44272;SDS011;29964;17.182;-96.766;2023-07-09T12:40:46;1.92;;;1.38;;
44272;SDS011;29964;17.182;-96.766;2023-07-09T12:43:13;2.03;;;1.60;;
44272;SDS011;29964;17.182;-96.766;2023-07-09T12:45:40;2.57;;;2.03;;
44272;SDS011;29964;17.182;-96.766;2023-07-09T12:48:07;2.63;;;1.60;;
44272;SDS011;29964;17.182;-96.766;2023-07-09T12:50:35;3.00;;;2.07;;
44272;SDS011;29964;17.182;-96.766;2023-07-09T12:53:03;3.83;;;1.83;;
44272;SDS011;29964;17.182;-96.766;2023-07-09T12:55:38;2.20;;;1.80;;
44272;SDS011;29964;17.182;-96.766;2023-07-09T12:58:08;3.93;;;2.50;;
44272;SDS011;29964;17.182;-96.766;2023-07-09T13:00:36;2.73;;;1.80;;
44272;SDS011;29964;17.182;-96.766;2023-07-09T13:03:03;6.03;;;2.67;;
44272;SDS011;29964;17.182;-96.766;2023-07-09T13:05:37;2.97;;;2.33;;
44272;SDS011;29964;17.182;-96.766;2023-07-09T13:08:04;3.40;;;1.90;;
44272;SDS011;29964;17.182;-96.766;2023-07-09T13:10:32;2.63;;;2.03;;
44272;SDS011;29964;17.182;-96.766;2023-07-09T13:13:04;4.37;;;3.17;;
44272;SDS011;29964;17.182;-96.766;2023-07-09T13:18:02;2.90;;;2.27;;
44272;SDS011;29964;17.182;-96.766;2023-07-09T13:20:30;5.83;;;2.50;;
44272;SDS011;29964;17.182;-96.766;2023-07-09T13:22:57;3.73;;;2.63;;
44272;SDS011;29964;17.182;-96.766;2023-07-09T13:25:24;4.07;;;2.97;;
44272;SDS011;29964;17.182;-96.766;2023-07-09T13:27:51;2.40;;;1.90;;
44272;SDS011;29964;17.182;-96.766;2023-07-09T13:30:18;2.67;;;2.17;;
44272;SDS011;29964;17.182;-96.766;2023-07-09T13:32:46;5.07;;;2.53;;
44272;SDS011;29964;17.182;-96.766;2023-07-09T13:35:15;4.33;;;1.60;;
44272;SDS011;29964;17.182;-96.766;2023-07-09T13:37:44;2.30;;;1.77;;
44272;SDS011;29964;17.182;-96.766;2023-07-09T13:40:12;2.33;;;1.80;;
44272;SDS011;29964;17.182;-96.766;2023-07-09T13:42:40;4.13;;;2.40;;
44272;SDS011;29964;17.182;-96.766;2023-07-09T13:45:25;1.00;;;0.90;;
44272;SDS011;29964;17.182;-96.766;2023-07-09T13:47:52;3.38;;;1.92;;
44272;SDS011;29964;17.182;-96.766;2023-07-09T13:50:19;6.00;;;2.60;;
44272;SDS011;29964;17.182;-96.766;2023-07-09T13:52:48;3.00;;;1.70;;
44272;SDS011;29964;17.182;-96.766;2023-07-09T13:55:17;5.23;;;2.33;;
44272;SDS011;29964;17.182;-96.766;2023-07-09T13:57:44;1.77;;;1.37;;
44272;SDS011;29964;17.182;-96.766;2023-07-09T14:00:11;2.50;;;1.80;;
44272;SDS011;29964;17.182;-96.766;2023-07-09T14:02:38;6.33;;;1.67;;
44272;SDS011;29964;17.182;-96.766;2023-07-09T14:05:06;2.67;;;1.77;;
44272;SDS011;29964;17.182;-96.766;2023-07-09T14:07:34;2.13;;;1.40;;
44272;SDS011;29964;17.182;-96.766;2023-07-09T14:10:01;2.23;;;1.43;;
44272;SDS011;29964;17.182;-96.766;2023-07-09T14:12:29;1.93;;;1.23;;
44272;SDS011;29964;17.182;-96.766;2023-07-09T14:14:58;2.53;;;1.20;;
44272;SDS011;29964;17.182;-96.766;2023-07-09T14:17:26;1.87;;;1.50;;
44272;SDS011;29964;17.182;-96.766;2023-07-09T14:19:53;4.57;;;1.77;;
44272;SDS011;29964;17.182;-96.766;2023-07-09T14:22:25;9.23;;;2.83;;
44272;SDS011;29964;17.182;-96.766;2023-07-09T14:24:52;4.50;;;1.57;;
44272;SDS011;29964;17.182;-96.766;2023-07-09T14:27:19;2.23;;;1.50;;
44272;SDS011;29964;17.182;-96.766;2023-07-09T14:29:46;3.37;;;2.07;;
44272;SDS011;29964;17.182;-96.766;2023-07-09T14:32:54;2.43;;;1.63;;
44272;SDS011;29964;17.182;-96.766;2023-07-09T14:35:03;2.87;;;1.80;;
44272;SDS011;29964;17.182;-96.766;2023-07-09T14:37:30;2.23;;;1.43;;
44272;SDS011;29964;17.182;-96.766;2023-07-09T14:39:57;2.13;;;1.53;;
44272;SDS011;29964;17.182;-96.766;2023-07-09T14:42:24;2.40;;;1.87;;
44272;SDS011;29964;17.182;-96.766;2023-07-09T14:44:51;2.53;;;1.80;;
44272;SDS011;29964;17.182;-96.766;2023-07-09T14:47:19;2.20;;;1.23;;
44272;SDS011;29964;17.182;-96.766;2023-07-09T14:49:46;3.90;;;2.43;;
44272;SDS011;29964;17.182;-96.766;2023-07-09T14:52:14;2.87;;;1.87;;
44272;SDS011;29964;17.182;-96.766;2023-07-09T14:54:43;2.53;;;1.83;;
44272;SDS011;29964;17.182;-96.766;2023-07-09T14:57:19;2.20;;;1.70;;
44272;SDS011;29964;17.182;-96.766;2023-07-09T14:59:46;2.13;;;1.53;;
44272;SDS011;29964;17.182;-96.766;2023-07-09T15:02:25;2.20;;;1.60;;
44272;SDS011;29964;17.182;-96.766;2023-07-09T15:04:56;1.30;;;1.10;;
44272;SDS011;29964;17.182;-96.766;2023-07-09T15:07:23;3.43;;;1.93;;
44272;SDS011;29964;17.182;-96.766;2023-07-09T15:09:55;7.80;;;1.47;;
44272;SDS011;29964;17.182;-96.766;2023-07-09T15:12:25;5.17;;;1.67;;
44272;SDS011;29964;17.182;-96.766;2023-07-09T15:14:53;2.20;;;1.30;;
44272;SDS011;29964;17.182;-96.766;2023-07-09T15:17:21;3.60;;;1.83;;
44272;SDS011;29964;17.182;-96.766;2023-07-09T15:19:48;2.03;;;1.27;;
44272;SDS011;29964;17.182;-96.766;2023-07-09T15:22:19;1.33;;;1.13;;
44272;SDS011;29964;17.182;-96.766;2023-07-09T15:24:50;1.57;;;1.27;;
44272;SDS011;29964;17.182;-96.766;2023-07-09T15:27:17;2.17;;;1.43;;
44272;SDS011;29964;17.182;-96.766;2023-07-09T15:29:44;1.67;;;1.30;;